Latest Coastal Weather Observations for Cape Bruny AWS

IDT60701

Issued at 11:32 am EST Friday 4 September 2015 (issued every 10 minutes, with the page automatically refreshed every 10 minutes)

About coastal observations | Map of coastal stations | Coastal observations for TAS | Marine services | Other Formats
Station Details ID: 094198 Name: CAPE BRUNY (CAPE BRUNY) Lat: -43.49 Lon: 147.14 Height: 59.7 m
Data from the previous 72 hours. | See also: Recent months at Cape Bruny AWS
Date/Time
EST
Temp

°C
Wind Pressure Rain
since 9am
mm
Weather Cloud Vis
km
Sea
Height
m
Swell
Dir
 
Speed
knots
Gust
knots
hPa Trend Height
m
Period
s
Dir
04/11:30am 11.7 WNW 24 37 1015.5 - 0.0 - - - - - - -
04/11:21am 11.5 WNW 27 37 1015.4 - 0.0 - - - - - - -
04/11:00am 11.7 WNW 25 34 1015.6 - 0.0 - - - - - - -
04/10:36am 11.2 WNW 25 35 1015.8 - 0.0 - - - - - - -
04/10:30am 11.2 WNW 25 32 1016.0 - 0.0 - - - - - - -
04/10:07am 11.2 WNW 21 31 1016.1 - 0.0 - - - - - - -
04/10:00am 11.1 WNW 23 30 1016.0 - 0.0 - - - - - - -
04/09:45am 10.9 WNW 26 36 1016.0 - 0.0 - - - - - - -
04/09:30am 10.8 WNW 29 36 1015.9 - 0.0 - - - - - - -
04/09:00am 10.4 WNW 28 36 1016.1 - 0.2 - - - - - - -
04/08:30am 9.8 WNW 29 37 1016.4 - 0.2 - - - - - - -
04/08:00am 9.5 WNW 22 32 1016.5 - 0.2 - - - - - - -
04/07:40am 9.2 WNW 21 31 1016.6 - 0.2 - - - - - - -
04/07:30am 9.2 WNW 23 29 1016.6 - 0.2 - - - - - - -
04/07:11am 9.0 WNW 23 33 1016.6 - 0.2 - - - - - - -
04/07:00am 8.8 WNW 25 32 1016.4 - 0.2 - - - - - - -
04/06:30am 8.5 WNW 23 34 1016.3 - 0.2 - - - - - - -
04/06:08am 8.3 WNW 20 33 1016.3 - 0.2 - - - - - - -
04/06:00am 8.3 WNW 19 28 1016.4 - 0.2 - - - - - - -
04/05:36am 8.0 NW 17 27 1016.5 - 0.2 - - - - - - -
04/05:30am 7.5 NW 16 24 1016.6 - 0.2 - - - - - - -
04/05:00am 7.2 NW 13 21 1017.0 - 0.2 - - - - - - -
04/04:49am 7.2 WNW 15 25 1017.0 - 0.2 - - - - - - -
04/04:30am 7.2 NW 16 21 1017.0 - 0.2 - - - - - - -
04/04:00am 6.3 NW 11 19 1017.2 - 0.2 - - - - - - -
04/03:30am 6.9 NW 17 22 1017.5 - 0.2 - - - - - - -
04/03:00am 6.6 NW 15 19 1017.8 - 0.2 - - - - - - -
04/02:30am 6.8 NW 14 19 1018.3 - 0.2 - - - - - - -
04/02:00am 6.5 NW 14 21 1018.9 - 0.2 - - - - - - -
04/01:30am 6.5 NW 16 21 1019.3 - 0.2 - - - - - - -
04/01:00am 6.5 WNW 15 21 1019.4 - 0.2 - - - - - - -
04/12:30am 6.5 NW 14 18 1019.5 - 0.2 - - - - - - -
04/12:00am 6.5 NW 17 21 1019.6 - 0.2 - - - - - - -
 
Date/Time
EST
Temp

°C
Wind Pressure Rain
since 9am
mm
Weather Cloud Vis
km
Sea
Height
m
Swell
Dir
 
Speed
knots
Gust
knots
hPa Trend Height
m
Period
s
Dir
03/11:30pm 6.7 NW 15 19 1019.7 - 0.2 - - - - - - -
03/11:00pm 6.6 NW 15 19 1019.8 - 0.2 - - - - - - -
03/10:30pm 6.9 NW 14 17 1019.9 - 0.2 - - - - - - -
03/10:00pm 6.7 WNW 11 14 1019.9 - 0.2 - - - - - - -
03/09:30pm 7.1 WNW 11 14 1019.8 - 0.2 - - - - - - -
03/09:00pm 6.9 W 15 18 1019.6 - 0.2 - - - - - - -
03/08:30pm 6.9 W 14 16 1019.5 - 0.2 - - - - - - -
03/08:00pm 7.1 WSW 15 17 1019.4 - 0.2 - - - - - - -
03/07:30pm 7.3 W 15 20 1019.3 - 0.2 - - - - - - -
03/07:00pm 7.7 W 15 19 1019.3 - 0.2 - - - - - - -
03/06:30pm 7.7 W 17 23 1019.1 - 0.2 - - - - - - -
03/06:00pm 7.6 WSW 16 22 1018.6 - 0.2 - - - - - - -
03/05:30pm 7.4 WSW 18 23 1018.3 - 0.2 - - - - - - -
03/05:00pm 7.9 WSW 17 22 1017.7 - 0.2 - - - - - - -
03/04:30pm 8.0 WSW 17 23 1017.3 - 0.2 - - - - - - -
03/04:00pm 8.1 WSW 14 19 1017.3 - 0.2 - - - - - - -
03/03:30pm 8.9 WSW 17 23 1017.1 - 0.2 - - - - - - -
03/03:00pm 8.3 WSW 17 29 1016.9 - 0.2 - - - - - - -
03/02:53pm 8.3 WSW 17 29 1016.8 - 0.2 - - - - - - -
03/02:30pm 8.4 WSW 16 21 1016.6 - 0.2 - - - - - - -
03/02:00pm 8.7 WSW 16 22 1016.3 - 0.2 - - - - - - -
03/01:30pm 9.7 WSW 19 27 1016.1 - 0.2 - - - - - - -
03/01:00pm 9.8 WSW 18 24 1016.2 - 0.2 - - - - - - -
03/12:30pm 9.3 SW 17 23 1016.2 - 0.2 - - - - - - -
03/12:00pm 10.3 WSW 16 23 1016.1 - 0.2 - - - - - - -
03/11:30am 9.5 SW 18 24 1016.0 - 0.2 - - - - - - -
03/11:00am 9.1 SW 14 23 1015.6 - 0.2 - - - - - - -
03/10:30am 7.4 SW 17 24 1015.2 - 0.2 - - - - - - -
03/10:00am 6.9 SW 16 22 1015.0 - 0.2 - - - - - - -
03/09:30am 8.9 SW 19 29 1014.6 - 0.0 - - - - - - -
03/09:07am 8.5 SW 16 26 1014.4 - 0.0 - - - - - - -
03/09:00am 8.5 SW 17 25 1014.3 - 4.0 Recent precip. - - - - - -
03/08:30am 8.0 SW 20 27 1013.8 - 4.0 - - - - - - -
03/08:03am 6.9 SW 17 27 1013.7 - 3.8 - - - - - - -
03/08:00am 7.3 SW 20 27 1013.7 - 3.8 - - - - - - -
03/07:30am 8.1 SW 18 25 1012.7 - 3.8 - - - - - - -
03/07:00am 7.8 SW 19 24 1012.2 - 3.8 - - - - - - -
03/06:30am 7.7 SW 19 31 1011.6 - 3.8 - - - - - - -
03/06:22am 7.9 SW 15 27 1011.6 - 3.6 - - - - - - -
03/06:00am 7.6 SW 12 20 1011.3 - 3.6 - - - - - - -
03/05:52am 7.8 SW 15 25 1011.1 - 3.6 - - - - - - -
03/05:30am 8.1 SW 17 24 1010.6 - 3.6 - - - - - - -
03/05:00am 8.0 SW 17 28 1010.3 - 3.6 - - - - - - -
03/04:58am 8.0 SW 16 28 1010.3 - 3.6 - - - - - - -
03/04:30am 7.7 SW 14 19 1009.8 - 3.6 - - - - - - -
03/04:00am 7.8 WSW 16 22 1009.2 - 2.8 - - - - - - -
03/03:30am 7.7 W 16 21 1009.0 - 2.8 - - - - - - -
03/03:00am 7.3 W 12 15 1009.0 - 2.8 - - - - - - -
03/02:30am 7.4 W 13 18 1009.3 - 2.8 - - - - - - -
03/02:00am 7.1 WSW 18 24 1009.5 - 2.8 - - - - - - -
03/01:30am 7.5 SW 15 23 1009.5 - 2.6 - - - - - - -
03/01:00am 8.1 WSW 15 20 1009.2 - 2.4 - - - - - - -
03/12:30am 8.0 WSW 13 19 1009.2 - 2.2 - - - - - - -
03/12:00am 8.3 WSW 8 12 1008.9 - 1.6 Rain - - - - - -
 
Date/Time
EST
Temp

°C
Wind Pressure Rain
since 9am
mm
Weather Cloud Vis
km
Sea
Height
m
Swell
Dir
 
Speed
knots
Gust
knots
hPa Trend Height
m
Period
s
Dir
02/11:30pm 8.4 W 6 7 1008.6 - 0.8 - - - - - - -
02/11:00pm 8.2 N 6 8 1008.4 - 0.6 - - - - - - -
02/10:30pm 8.1 NNE 5 7 1008.5 - 0.4 - - - - - - -
02/10:00pm 8.1 NE 3 5 1008.4 - 0.4 - - - - - - -
02/09:30pm 8.1 N 7 9 1008.3 - 0.4 - - - - - - -
02/09:00pm 8.1 N 6 8 1008.5 - 0.4 - - - - - - -
02/08:30pm 8.1 NNW 4 8 1008.6 - 0.4 - - - - - - -
02/08:00pm 7.9 N 7 9 1008.3 - 0.4 - - - - - - -
02/07:30pm 8.0 NNE 5 6 1008.3 - 0.4 - - - - - - -
02/07:00pm 8.2 NE 4 5 1008.5 - 0.4 - - - - - - -
02/06:30pm 8.4 ENE 4 5 1008.5 - 0.2 - - - - - - -
02/06:00pm 8.8 E 5 6 1008.5 - 0.2 - - - - - - -
02/05:30pm 8.9 SSE 4 5 1008.5 - 0.2 - - - - - - -
02/05:00pm 9.0 S 3 5 1008.4 - 0.2 - - - - - - -
02/04:30pm 8.9 S 5 7 1008.6 - 0.2 - - - - - - -
02/04:00pm 9.1 S 5 7 1008.6 - 0.2 - - - - - - -
02/03:30pm 9.7 SSE 5 6 1008.5 - 0.2 - - - - - - -
02/03:00pm 9.7 SSE 5 7 1008.5 - 0.2 - - - - - - -
02/02:30pm 9.9 SSE 6 7 1008.7 - 0.2 - - - - - - -
02/02:00pm 10.2 SSE 6 7 1008.8 - 0.2 - - - - - - -
02/01:30pm 10.4 S 7 9 1009.2 - 0.2 - - - - - - -
02/01:00pm 12.0 S 7 8 1009.4 - 0.2 - - - - - - -
02/12:30pm 11.3 S 5 7 1009.9 - 0.0 - - - - - - -
02/12:00pm 11.8 W 4 6 1010.5 - 0.0 - - - - - - -
02/11:30am 12.1 NW 4 10 1010.8 - 0.0 - - - - - - -
02/11:00am 11.3 N 5 9 1011.2 - 0.0 - - - - - - -
02/10:30am 9.8 N 8 11 1011.3 - 0.0 - - - - - - -
02/10:00am 9.1 NNE 9 12 1011.3 - 0.0 - - - - - - -
02/09:30am 8.4 NNE 9 11 1011.7 - 0.0 - - - - - - -
02/09:00am 7.5 NNE 9 11 1011.9 - 0.8 - - - - - - -
02/08:30am 6.9 NNE 9 12 1011.9 - 0.8 - - - - - - -
02/08:00am 6.9 N 7 11 1012.2 - 0.8 - - - - - - -
02/07:30am 6.5 N 11 14 1012.2 - 0.8 - - - - - - -
02/07:00am 6.1 N 12 14 1012.0 - 0.8 - - - - - - -
02/06:30am 6.1 N 10 14 1011.8 - 0.8 - - - - - - -
02/06:00am 6.2 N 11 14 1011.9 - 0.8 - - - - - - -
02/05:30am 6.2 N 9 13 1011.9 - 0.8 - - - - - - -
02/05:00am 6.3 N 10 13 1011.9 - 0.8 - - - - - - -
02/04:30am 6.5 N 11 13 1011.7 - 0.8 - - - - - - -
02/04:00am 6.7 N 10 13 1011.6 - 0.8 - - - - - - -
02/03:30am 7.0 N 9 11 1011.9 - 0.8 - - - - - - -
02/03:00am 7.0 N 7 9 1012.5 - 0.8 - - - - - - -
02/02:30am 6.9 N 6 8 1012.8 - 0.8 - - - - - - -
02/02:00am 7.0 N 6 8 1013.5 - 0.8 - - - - - - -
02/01:30am 6.8 NNE 6 6 1013.8 - 0.8 - - - - - - -
02/01:00am 6.7 NNE 6 7 1013.7 - 0.8 - - - - - - -
02/12:30am 6.9 NNE 6 7 1013.6 - 0.8 - - - - - - -
02/12:00am 7.2 N 5 6 1013.9 - 0.8 - - - - - - -
 
Date/Time
EST
Temp

°C
Wind Pressure Rain
since 9am
mm
Weather Cloud Vis
km
Sea
Height
m
Swell
Dir
 
Speed
knots
Gust
knots
hPa Trend Height
m
Period
s
Dir
01/11:30pm 6.8 N 5 6 1013.9 - 0.8 - - - - - - -
01/11:00pm 7.0 N 5 6 1013.9 - 0.8 - - - - - - -
01/10:30pm 6.7 N 5 5 1013.9 - 0.8 - - - - - - -
01/10:00pm 7.9 N 5 6 1014.0 - 0.8 - - - - - - -
01/09:30pm 8.0 NNW 5 7 1014.0 - 0.8 - - - - - - -
01/09:00pm 7.3 N 4 6 1013.9 - 0.8 - - - - - - -
01/08:30pm 7.7 E 4 5 1013.7 - 0.8 - - - - - - -
01/08:00pm 8.0 E 4 5 1013.8 - 0.8 - - - - - - -
01/07:30pm 7.8 ESE 5 7 1013.9 - 0.8 - - - - - - -
01/07:00pm 7.9 ESE 8 10 1013.7 - 0.8 - - - - - - -
01/06:30pm 8.4 ESE 8 10 1013.6 - 0.8 - - - - - - -
01/06:00pm 8.2 ESE 8 10 1013.6 - 0.8 - - - - - - -
01/05:30pm 8.1 ESE 8 11 1013.5 - 0.8 - - - - - - -
01/05:00pm 8.7 ESE 9 11 1013.3 - 0.8 - - - - - - -
01/04:30pm 8.9 ESE 9 11 1013.5 - 0.8 - - - - - - -
01/04:00pm 9.8 ESE 9 12 1013.5 - 0.8 - - - - - - -
01/03:30pm 10.2 ESE 8 10 1013.8 - 0.8 - - - - - - -
01/03:00pm 10.3 ESE 8 11 1014.1 - 0.8 - - - - - - -
01/02:30pm 10.3 SE 9 12 1014.1 - 0.8 - - - - - - -
01/02:00pm 10.4 ESE 6 7 1014.3 - 0.8 - - - - - - -
01/01:30pm 10.3 ESE 6 8 1014.5 - 0.8 - - - - - - -
01/01:00pm 10.7 SSE 5 8 1014.9 - 0.8 - - - - - - -
01/12:30pm 9.6 S 1 4 1015.1 - 0.8 - - - - - - -
01/12:00pm 9.4 ESE 4 6 1015.6 - 0.8 Recent precip. - - - - - -

Other Formats:

Comma delimited format used in spreadsheet applications
http://www.bom.gov.au/fwo/IDT60701/IDT60701.95967.axf

JavaScript Object Notation format (JSON) in row-major order
http://www.bom.gov.au/fwo/IDT60701/IDT60701.95967.json